Time;durP1;ratioP1;P1;durP2;ratioP2;P2;SDS_P1;SDS_P2;PMS_P1;PMS_P2;Temp;Humidity;BMP_temperature;BMP_pressure;BME280_temperature;BME280_humidity;BME280_pressure;Samples;Min_cycle;Max_cycle;Signal;HPM_P1;HPM_P2
2022/07/20 00:01:52;;;;;;;4.93;3.92;;;29.90;99.90;;;30.20;33.94;101052.31;5055608;28;20045;-68
2022/07/20 00:04:22;;;;;;;1.00;1.00;;;29.70;99.90;;;30.22;33.97;101017.56;5055581;28;20060;-68
2022/07/20 00:06:50;;;;;;;1.02;1.02;;;29.80;99.90;;;30.37;33.36;101054.56;5055525;28;20455;-68
2022/07/20 00:12:10;;;;;;;0.90;0.90;;;29.80;99.90;;;30.46;34.20;101048.31;5055661;28;20053;-69
2022/07/20 00:14:39;;;;;;;1.00;1.00;;;29.90;99.90;;;30.57;33.72;101039.19;5055113;28;20049;-68
2022/07/20 00:17:08;;;;;;;1.20;1.20;;;30.00;99.90;;;30.62;33.13;101036.97;5055109;28;20460;-68
2022/07/20 00:19:37;;;;;;;2.00;1.55;;;30.10;99.90;;;30.59;32.78;101038.06;5055274;28;20037;-68
2022/07/20 00:22:06;;;;;;;3.50;1.45;;;30.10;97.50;;;30.28;33.22;101038.94;5055040;28;20124;-68
2022/07/20 00:24:34;;;;;;;1.33;1.33;;;29.80;98.10;;;29.91;33.25;101032.00;5055393;28;20478;-69
2022/07/20 00:27:02;;;;;;;1.00;1.00;;;29.40;99.90;;;29.86;33.42;101042.44;5054910;28;20178;-69
2022/07/20 00:29:31;;;;;;;1.20;1.20;;;29.30;99.90;;;29.74;33.73;101038.88;5054879;28;20517;-69
2022/07/20 00:31:59;;;;;;;1.10;1.10;;;29.20;99.90;;;29.82;33.36;101035.50;5053834;28;20073;-68
2022/07/20 00:34:28;;;;;;;1.00;1.00;;;29.20;99.90;;;29.82;33.42;101016.41;5054896;28;20402;-69
2022/07/20 00:36:57;;;;;;;1.80;1.60;;;29.30;99.90;;;29.76;33.86;101036.00;5055092;28;20037;-69
2022/07/20 00:39:25;;;;;;;1.23;1.23;;;29.20;99.90;;;29.23;34.85;101043.88;5054989;28;20045;-69
2022/07/20 00:41:54;;;;;;;1.10;1.10;;;28.80;99.90;;;29.12;35.38;101037.50;5055388;28;20040;-68
2022/07/20 00:44:27;;;;;;;1.00;1.00;;;28.50;99.90;;;29.22;34.99;101028.53;5054422;28;20049;-69
2022/07/20 00:46:56;;;;;;;1.00;1.00;;;28.70;99.90;;;29.48;34.51;101031.88;5054864;28;20039;-68
2022/07/20 00:49:24;;;;;;;1.30;1.30;;;28.90;99.90;;;29.54;34.33;101038.72;5053424;28;20190;-68
2022/07/20 00:51:53;;;;;;;1.30;1.30;;;29.10;99.90;;;29.61;34.49;101038.09;5054315;28;20127;-68
2022/07/20 00:54:24;;;;;;;1.13;1.13;;;29.10;99.90;;;29.69;34.23;101035.63;5054733;28;20401;-68
2022/07/20 00:56:53;;;;;;;1.00;1.00;;;29.20;99.90;;;29.64;34.83;101023.31;5054655;28;20410;-68
2022/07/20 00:59:21;;;;;;;3.22;3.05;;;29.30;99.90;;;29.76;34.69;101034.16;5054380;28;20071;-68
2022/07/20 01:01:49;;;;;;;1.10;1.10;;;29.40;99.90;;;29.80;35.29;101053.88;5054342;28;20111;-69
2022/07/20 01:04:18;;;;;;;1.10;1.10;;;29.30;99.90;;;29.83;36.33;101054.47;5054108;28;20033;-69
2022/07/20 01:06:46;;;;;;;1.20;1.20;;;29.30;99.90;;;29.79;37.45;101049.41;5054786;28;20106;-69
2022/07/20 01:09:16;;;;;;;1.30;1.30;;;29.30;99.90;;;29.72;38.73;101069.97;5054185;28;20123;-68
2022/07/20 01:11:46;;;;;;;1.20;1.20;;;29.20;99.90;;;29.20;39.26;100999.66;5054270;28;20053;-68
2022/07/20 01:14:15;;;;;;;2.17;2.07;;;29.10;99.90;;;29.47;40.09;101073.78;5054115;28;20076;-68
2022/07/20 01:16:43;;;;;;;7.05;2.03;;;29.00;99.90;;;29.38;40.46;101082.69;5054058;28;20090;-68
2022/07/20 01:19:12;;;;;;;0.90;0.90;;;28.80;99.90;;;29.25;40.90;101090.97;5054018;28;20437;-69
2022/07/20 01:21:41;;;;;;;4.15;3.85;;;28.80;99.90;;;29.16;42.14;101077.19;5053960;28;20041;-68
2022/07/20 01:24:13;;;;;;;1.23;1.23;;;28.60;99.90;;;29.10;44.01;101097.59;5053834;28;20106;-68
2022/07/20 01:26:43;;;;;;;1.55;1.52;;;28.50;99.90;;;29.07;45.36;101103.28;5053974;28;20052;-68
2022/07/20 01:29:16;;;;;;;1.33;1.33;;;28.50;99.90;;;28.95;46.95;101106.94;5053920;28;20044;-68
2022/07/20 01:31:44;;;;;;;8.35;4.53;;;28.40;99.90;;;28.88;48.48;101102.94;5053956;28;20068;-69
2022/07/20 01:34:13;;;;;;;1.80;1.75;;;28.40;99.90;;;28.78;50.27;101118.28;5054038;28;20065;-69
2022/07/20 01:36:42;;;;;;;1.27;1.27;;;28.20;99.90;;;28.70;51.23;101107.09;5054062;28;20052;-68
2022/07/20 01:39:11;;;;;;;1.73;1.63;;;28.20;99.90;;;28.59;52.48;101101.56;5053828;28;20114;-68
2022/07/20 01:41:39;;;;;;;1.30;1.30;;;28.10;99.90;;;28.58;53.01;101094.41;5053610;28;20495;-68
2022/07/20 01:44:07;;;;;;;3.28;2.88;;;28.10;99.90;;;28.50;53.88;101104.97;5053484;28;20045;-69
2022/07/20 01:46:36;;;;;;;2.42;2.33;;;28.00;99.90;;;28.41;54.52;101089.31;5053453;28;20044;-68
2022/07/20 01:49:04;;;;;;;1.73;1.70;;;27.90;99.90;;;28.28;54.74;101085.78;5053390;28;20489;-69
2022/07/20 01:51:33;;;;;;;6.20;5.68;;;27.90;99.90;;;28.34;54.94;101094.34;5053641;28;20037;-68
2022/07/20 01:54:02;;;;;;;1.70;1.60;;;27.80;99.90;;;28.28;55.15;101100.22;5053399;28;20076;-68
2022/07/20 01:56:31;;;;;;;2.20;2.10;;;27.70;99.90;;;28.27;55.00;101097.63;5053297;28;20056;-68
2022/07/20 01:58:59;;;;;;;2.10;2.00;;;27.70;99.90;;;28.24;55.28;101101.44;5053779;28;20087;-68
2022/07/20 02:01:29;;;;;;;2.30;2.20;;;27.70;99.90;;;28.22;55.68;101100.69;5053174;28;20118;-68
2022/07/20 02:03:58;;;;;;;5.43;5.13;;;27.60;99.90;;;28.17;55.65;101088.41;5052953;28;20048;-68
2022/07/20 02:06:26;;;;;;;2.15;2.05;;;27.60;99.90;;;28.06;55.96;101089.22;5052821;28;20464;-68
2022/07/20 02:08:54;;;;;;;1.85;1.75;;;27.60;99.90;;;28.06;56.34;101105.53;5053566;28;20418;-68
2022/07/20 02:11:24;;;;;;;1.83;1.80;;;27.60;99.90;;;28.03;56.47;101110.34;5052221;28;20045;-68
2022/07/20 02:13:53;;;;;;;2.17;2.08;;;27.50;99.90;;;27.97;56.59;101103.47;5053378;28;20048;-68
2022/07/20 02:16:21;;;;;;;1.52;1.52;;;27.40;99.90;;;27.96;56.72;101101.75;5052775;28;20686;-68
2022/07/20 02:18:55;;;;;;;1.88;1.80;;;27.40;99.90;;;27.89;57.18;101108.59;5053523;28;20146;-69
2022/07/20 02:21:24;;;;;;;1.85;1.75;;;27.40;99.90;;;27.83;57.32;101102.72;5052806;28;20116;-68
2022/07/20 02:23:53;;;;;;;2.30;2.20;;;27.30;99.90;;;27.85;57.17;101098.91;5052599;28;20360;-68
2022/07/20 02:26:21;;;;;;;1.45;1.45;;;27.30;99.90;;;27.79;57.46;101099.34;5052422;28;20048;-68
2022/07/20 02:28:52;;;;;;;6.38;4.57;;;27.30;99.90;;;27.55;57.37;101058.47;5052561;28;20132;-68
2022/07/20 02:31:21;;;;;;;3.35;3.20;;;27.30;99.90;;;27.79;57.43;101098.47;5052761;28;20045;-68
2022/07/20 02:33:51;;;;;;;3.60;3.40;;;27.30;99.90;;;27.78;57.92;101100.31;5084903;28;20048;-68
2022/07/20 02:36:19;;;;;;;2.40;2.30;;;27.30;99.90;;;27.79;57.87;101101.19;5052326;28;20140;-68
2022/07/20 02:38:49;;;;;;;1.80;1.73;;;27.30;99.90;;;27.81;57.75;101112.84;5052500;28;20120;-68
2022/07/20 02:41:18;;;;;;;1.42;1.42;;;27.30;99.90;;;27.76;58.28;101106.88;5051229;28;20468;-68
2022/07/20 02:43:47;;;;;;;1.90;1.80;;;27.30;99.90;;;27.72;58.38;101118.94;5052240;28;20406;-68
2022/07/20 02:46:16;;;;;;;1.98;1.88;;;27.20;99.90;;;27.78;58.56;101115.78;5052149;28;20144;-68
2022/07/20 02:48:45;;;;;;;1.55;1.55;;;27.20;99.90;;;27.73;58.55;101121.53;5052650;28;20036;-68
2022/07/20 02:51:14;;;;;;;2.40;2.30;;;27.20;99.90;;;25.87;58.80;100806.13;5052025;28;20137;-68
2022/07/20 02:53:42;;;;;;;6.65;6.05;;;27.20;99.90;;;27.61;59.49;101115.13;5067703;28;20428;-68
2022/07/20 02:56:10;;;;;;;2.60;2.50;;;27.10;99.90;;;27.43;59.51;101075.66;5051922;28;20045;-68
2022/07/20 02:58:39;;;;;;;1.70;1.63;;;27.20;99.90;;;27.45;59.65;101098.16;5051899;28;20094;-68
2022/07/20 03:01:08;;;;;;;1.45;1.45;;;27.20;99.90;;;27.62;59.85;101125.00;5052012;28;20040;-68
2022/07/20 03:03:37;;;;;;;1.20;1.20;;;27.10;99.90;;;27.60;60.43;101128.84;5051015;28;20136;-68
2022/07/20 03:06:07;;;;;;;2.20;2.10;;;27.10;99.90;;;27.62;60.32;101119.56;5052041;28;20145;-68
2022/07/20 03:08:36;;;;;;;2.05;1.98;;;27.10;99.90;;;27.60;60.51;101118.81;5051857;28;20040;-68
2022/07/20 03:11:04;;;;;;;1.42;1.42;;;27.10;99.90;;;27.65;60.45;101129.38;5051789;28;20136;-68
2022/07/20 03:13:32;;;;;;;1.50;1.50;;;27.10;99.90;;;27.60;60.67;101126.97;5052017;28;20049;-68
2022/07/20 03:16:01;;;;;;;3.08;2.88;;;27.10;99.90;;;27.57;60.74;101123.59;5051982;28;20048;-68
2022/07/20 03:18:30;;;;;;;1.42;1.42;;;27.10;99.90;;;27.56;60.94;101138.19;5051993;28;20044;-68
2022/07/20 03:20:59;;;;;;;9.85;5.47;;;27.00;99.90;;;27.56;60.97;101124.59;5052022;28;20139;-68
2022/07/20 03:23:28;;;;;;;2.15;2.05;;;27.00;99.90;;;27.53;60.96;101130.22;5052353;28;20045;-68
2022/07/20 03:25:56;;;;;;;2.33;2.22;;;27.00;99.90;;;27.52;61.06;101128.50;5051609;28;20045;-69
2022/07/20 03:28:24;;;;;;;3.13;2.95;;;27.00;99.90;;;27.46;61.07;101139.81;5051968;28;20122;-68
2022/07/20 03:30:53;;;;;;;1.67;1.63;;;26.90;99.90;;;27.46;60.91;101162.44;5051944;28;20044;-70
2022/07/20 03:33:21;;;;;;;8.50;7.88;;;26.90;99.90;;;27.43;61.08;101159.91;5051843;28;20037;-69
2022/07/20 03:35:49;;;;;;;4.28;3.90;;;26.90;99.90;;;27.40;61.02;101168.28;5050491;28;20048;-68
2022/07/20 03:38:19;;;;;;;1.75;1.65;;;26.90;99.90;;;27.32;61.28;101165.22;5051756;28;20041;-69
2022/07/20 03:40:48;;;;;;;4.78;2.42;;;26.80;99.90;;;27.26;61.16;101149.31;5052077;28;20048;-69
2022/07/20 03:43:16;;;;;;;3.00;2.80;;;26.80;99.90;;;27.35;61.29;101169.59;5052069;28;20056;-69
2022/07/20 03:45:44;;;;;;;1.85;1.75;;;26.80;99.90;;;27.36;61.13;101172.19;5051617;28;20069;-69
2022/07/20 03:48:13;;;;;;;2.25;2.15;;;26.80;99.90;;;27.36;61.18;101176.75;5051680;28;20134;-69
2022/07/20 03:50:41;;;;;;;2.17;2.03;;;26.80;99.90;;;27.29;60.98;101167.25;5051687;28;20052;-69
2022/07/20 03:53:10;;;;;;;1.60;1.60;;;26.80;99.90;;;27.27;60.92;101167.38;5051755;28;20075;-69
2022/07/20 03:55:40;;;;;;;1.40;1.40;;;26.80;99.90;;;27.32;60.97;101164.31;5051833;28;20084;-69
2022/07/20 03:58:08;;;;;;;3.30;3.03;;;26.90;99.90;;;27.34;60.66;101176.84;5051649;28;20141;-68
2022/07/20 04:00:37;;;;;;;1.60;1.60;;;26.80;99.90;;;27.41;60.52;101175.44;5051810;28;20119;-68
2022/07/20 04:03:05;;;;;;;12.93;11.80;;;26.90;99.90;;;27.41;60.54;101180.03;5052020;28;20056;-68
2022/07/20 04:05:34;;;;;;;1.77;1.70;;;26.90;99.90;;;27.24;60.21;101148.53;5051621;28;20200;-77
2022/07/20 04:08:02;;;;;;;1.90;1.80;;;26.90;99.90;;;27.45;59.88;101176.09;5051873;28;20392;-68
2022/07/20 04:10:31;;;;;;;1.60;1.60;;;26.90;99.90;;;27.47;59.57;101188.63;5051381;28;20050;-69
2022/07/20 04:13:00;;;;;;;1.30;1.30;;;26.90;99.90;;;27.49;59.38;101197.53;5051297;28;20152;-69
2022/07/20 04:15:29;;;;;;;1.50;1.50;;;27.00;99.90;;;27.47;59.42;101196.78;5084100;28;20076;-71
2022/07/20 04:17:58;;;;;;;4.22;4.03;;;27.00;99.90;;;27.50;58.81;101196.56;5051554;28;20052;-73
2022/07/20 04:20:26;;;;;;;2.35;2.08;;;27.00;99.90;;;27.55;58.63;101197.13;5051430;28;20041;-71
2022/07/20 04:22:55;;;;;;;1.77;1.77;;;27.00;99.90;;;27.43;58.61;101159.91;5050182;28;20519;-70
2022/07/20 04:25:23;;;;;;;2.25;2.15;;;27.00;99.90;;;27.58;58.28;101198.75;5051141;28;20076;-72
2022/07/20 04:27:52;;;;;;;1.60;1.60;;;27.10;99.90;;;27.65;58.01;101213.66;5051444;28;20127;-71
2022/07/20 04:30:22;;;;;;;1.98;1.88;;;27.10;99.90;;;27.19;57.33;101118.13;5051427;28;20130;-71
2022/07/20 04:32:50;;;;;;;1.60;1.60;;;27.20;99.90;;;27.73;56.72;101224.00;5051797;28;20045;-71
2022/07/20 04:35:19;;;;;;;3.53;3.20;;;27.20;99.90;;;27.76;56.58;101223.78;5070414;28;20290;-71
2022/07/20 04:37:47;;;;;;;2.97;2.85;;;27.20;99.90;;;27.73;56.03;101237.59;5055124;28;20049;-71
2022/07/20 04:40:16;;;;;;;8.57;7.13;;;27.20;99.90;;;27.62;55.82;101231.03;5053730;28;20486;-71
2022/07/20 04:42:44;;;;;;;3.08;2.88;;;27.20;99.90;;;27.55;55.76;101248.78;5054736;28;20143;-71
2022/07/20 04:45:13;;;;;;;1.65;1.65;;;27.00;99.90;;;27.51;55.70;101227.31;5054859;28;20037;-71
2022/07/20 04:47:42;;;;;;;2.00;1.90;;;27.00;99.90;;;27.54;55.72;101240.72;5053779;28;20071;-71
2022/07/20 04:50:12;;;;;;;2.30;2.20;;;27.00;99.90;;;27.54;55.62;101230.72;5054810;28;20063;-71
2022/07/20 04:52:41;;;;;;;1.52;1.52;;;27.00;99.90;;;27.46;55.82;101233.09;5054559;28;20045;-73
2022/07/20 04:55:10;;;;;;;1.10;1.10;;;26.90;99.90;;;27.55;55.67;101254.19;5054389;28;20407;-71
2022/07/20 04:57:38;;;;;;;1.30;1.30;;;27.00;99.90;;;27.58;55.62;101250.41;5054294;28;20114;-71
2022/07/20 05:00:08;;;;;;;2.67;2.53;;;27.00;99.90;;;27.52;55.61;101246.28;5054493;28;20107;-71
2022/07/20 05:02:37;;;;;;;1.20;1.20;;;27.00;99.90;;;27.55;55.77;101251.47;5053038;28;20044;-71
2022/07/20 05:05:08;;;;;;;1.50;1.50;;;27.00;99.90;;;27.52;55.61;101250.84;5053018;28;20451;-71
2022/07/20 05:07:37;;;;;;;1.90;1.80;;;27.00;99.90;;;27.48;55.81;101250.19;5054075;28;20398;-70
2022/07/20 05:10:06;;;;;;;1.50;1.50;;;26.90;99.90;;;27.52;55.94;101246.28;5054293;28;20347;-70
2022/07/20 05:12:34;;;;;;;2.15;2.00;;;27.00;99.90;;;27.48;55.92;101265.59;5054069;28;20048;-71
2022/07/20 05:15:02;;;;;;;2.42;2.22;;;26.90;99.90;;;27.31;56.04;101258.53;5054081;28;20033;-71
2022/07/20 05:17:31;;;;;;;1.58;1.58;;;26.90;99.90;;;27.32;56.26;101263.06;5054523;28;20144;-71
2022/07/20 05:19:59;;;;;;;2.45;2.35;;;26.80;99.90;;;27.32;56.46;101254.00;5053930;28;20037;-71
2022/07/20 05:22:29;;;;;;;1.55;1.55;;;26.90;99.90;;;27.40;56.50;101270.69;5054457;28;20531;-71
2022/07/20 05:24:57;;;;;;;1.60;1.60;;;26.80;99.90;;;27.40;56.44;101276.13;5054287;28;20056;-71
2022/07/20 05:27:26;;;;;;;2.17;2.08;;;26.80;99.90;;;27.39;56.59;101279.84;5054206;28;20125;-71
2022/07/20 05:29:54;;;;;;;5.88;3.30;;;26.80;99.90;;;27.41;56.86;101284.16;5053670;28;20229;-71
2022/07/20 05:32:23;;;;;;;2.00;1.90;;;26.90;99.90;;;27.41;56.95;101294.19;5053977;28;20099;-71
2022/07/20 05:34:51;;;;;;;2.25;2.05;;;26.90;99.90;;;27.40;57.01;101296.03;5053589;28;20045;-71
2022/07/20 05:37:19;;;;;;;1.70;1.70;;;26.90;99.90;;;27.53;57.18;101293.34;5053471;28;20053;-71
2022/07/20 05:39:49;;;;;;;2.60;2.50;;;26.90;99.90;;;27.57;56.81;101292.16;5052357;28;20121;-71
2022/07/20 05:42:17;;;;;;;1.60;1.60;;;27.00;99.90;;;27.59;57.02;101290.19;5053441;28;20049;-71
2022/07/20 05:44:46;;;;;;;2.15;2.05;;;27.10;99.90;;;27.60;56.84;101300.13;5052307;28;20072;-71
2022/07/20 05:47:17;;;;;;;1.50;1.50;;;27.10;99.90;;;27.63;56.74;101300.78;5053219;28;20128;-71
2022/07/20 05:49:47;;;;;;;1.65;1.65;;;27.10;99.90;;;27.05;56.71;101204.22;5053094;28;20055;-71
2022/07/20 05:52:15;;;;;;;1.35;1.35;;;27.10;99.90;;;27.42;56.58;101256.03;5053291;28;20352;-71
2022/07/20 05:54:44;;;;;;;1.40;1.40;;;27.20;99.90;;;27.78;56.89;101304.28;5053251;28;20132;-70
2022/07/20 05:57:13;;;;;;;1.92;1.83;;;27.20;99.90;;;27.55;56.53;101275.94;5053313;28;20111;-70
2022/07/20 05:59:42;;;;;;;1.42;1.42;;;27.30;99.90;;;27.86;56.40;101330.94;5053090;28;20432;-70
2022/07/20 06:02:11;;;;;;;1.60;1.60;;;27.30;99.90;;;27.74;56.60;101337.25;5052816;28;20041;-70
2022/07/20 06:04:39;;;;;;;4.57;4.25;;;27.30;99.90;;;27.71;56.82;101334.72;5052995;28;20148;-71
2022/07/20 06:07:10;;;;;;;2.20;2.10;;;27.30;99.90;;;27.76;56.87;101362.50;5053295;28;20045;-71
2022/07/20 06:09:39;;;;;;;1.55;1.45;;;27.20;99.90;;;27.82;57.00;101381.06;5052834;28;20037;-71
2022/07/20 06:12:09;;;;;;;1.63;1.63;;;27.30;99.90;;;27.80;56.77;101389.34;5052801;28;20041;-71
2022/07/20 06:14:39;;;;;;;2.53;2.42;;;27.30;99.90;;;27.32;56.61;101341.88;5052688;28;20068;-71
2022/07/20 06:17:07;;;;;;;2.22;2.03;;;27.10;99.90;;;27.44;56.71;101402.69;5053024;28;20100;-71
2022/07/20 06:19:36;;;;;;;2.25;2.10;;;27.00;99.90;;;27.34;57.38;101401.53;5052683;28;20044;-71
2022/07/20 06:22:04;;;;;;;1.90;1.80;;;26.90;99.90;;;27.33;58.22;101438.72;5052863;28;20049;-71
2022/07/20 06:24:32;;;;;;;2.05;1.95;;;26.80;99.90;;;27.12;58.57;101433.78;5052893;28;20133;-71
2022/07/20 06:27:01;;;;;;;1.98;1.88;;;26.60;99.90;;;27.13;58.48;101452.69;5052484;28;20049;-71
2022/07/20 06:29:29;;;;;;;3.60;3.38;;;26.60;99.90;;;27.13;58.85;101452.69;5053142;28;20378;-70
2022/07/20 06:31:59;;;;;;;1.80;1.70;;;26.50;99.90;;;26.99;58.59;101444.53;5053051;28;20207;-70
2022/07/20 06:34:45;;;;;;;4.18;3.83;;;26.50;99.90;;;27.02;58.43;101460.66;5052545;28;20051;-67
2022/07/20 06:37:14;;;;;;;2.20;2.10;;;26.40;99.90;;;26.99;58.80;101471.69;5052635;28;20098;-67
2022/07/20 06:39:42;;;;;;;7.68;5.13;;;26.40;99.90;;;26.91;57.95;101474.03;5052422;28;20127;-68
2022/07/20 06:42:15;;;;;;;17.23;12.55;;;26.40;99.90;;;26.86;58.66;101478.00;5052756;28;20409;-66
2022/07/20 06:44:45;;;;;;;3.13;2.83;;;26.30;99.90;;;26.87;59.12;101469.75;5052964;28;20037;-66
2022/07/20 06:47:16;;;;;;;1.90;1.80;;;26.30;99.90;;;26.91;59.86;101478.56;5052320;28;20041;-67
2022/07/20 06:49:45;;;;;;;2.25;2.15;;;26.30;99.90;;;26.90;60.05;101457.81;5052427;28;20099;-70
2022/07/20 06:52:13;;;;;;;3.60;3.30;;;26.40;99.90;;;26.87;59.71;101460.75;5052266;28;20045;-70
2022/07/20 06:54:41;;;;;;;1.52;1.52;;;26.40;99.90;;;26.89;60.12;101485.97;5053330;28;20052;-69
2022/07/20 06:57:10;;;;;;;3.30;3.10;;;26.30;99.90;;;26.93;60.05;101501.97;5052083;28;20391;-68
2022/07/20 06:59:39;;;;;;;1.75;1.75;;;26.40;99.90;;;26.93;60.66;101514.66;5052314;28;20041;-68
2022/07/20 07:02:07;;;;;;;1.95;1.85;;;26.30;99.90;;;26.98;60.42;101509.84;5052487;28;20083;-68
2022/07/20 07:04:38;;;;;;;2.63;2.42;;;26.40;99.90;;;26.95;60.06;101515.44;5052321;28;20044;-68
2022/07/20 07:07:07;;;;;;;2.35;2.25;;;26.40;99.90;;;26.87;59.88;101528.63;5052030;28;20049;-71
2022/07/20 07:09:35;;;;;;;1.95;1.85;;;26.30;99.90;;;26.79;60.07;101516.38;5052004;28;20053;-71
2022/07/20 07:12:09;;;;;;;2.13;2.03;;;26.20;99.90;;;26.81;59.79;101520.88;5052310;28;20045;-71
2022/07/20 07:14:38;;;;;;;3.10;2.90;;;26.20;99.90;;;26.76;59.46;101510.28;5052275;28;20048;-69
2022/07/20 07:17:06;;;;;;;2.20;2.10;;;26.20;99.90;;;26.55;59.12;101449.13;5051857;28;20041;-71
2022/07/20 07:19:36;;;;;;;2.10;2.00;;;26.20;99.90;;;26.83;58.39;101503.50;5052486;28;20049;-71
2022/07/20 07:22:05;;;;;;;2.83;2.63;;;26.30;99.90;;;26.77;58.82;101510.16;5052153;28;20138;-70
2022/07/20 07:24:33;;;;;;;3.08;2.88;;;26.30;99.90;;;26.99;59.16;101509.72;5052114;28;20040;-70
2022/07/20 07:27:03;;;;;;;2.58;2.42;;;26.40;99.90;;;27.08;58.42;101506.44;5051568;28;20076;-72
2022/07/20 07:29:31;;;;;;;2.25;2.10;;;26.50;99.90;;;27.12;57.77;101524.28;5051690;28;20120;-71
2022/07/20 07:32:07;;;;;;;2.08;1.98;;;26.60;99.90;;;27.09;57.89;101472.88;5052084;28;20430;-76
2022/07/20 07:34:37;;;;;;;10.82;4.25;;;26.70;99.90;;;27.12;56.68;101507.97;5052373;28;20087;-75
2022/07/20 07:37:06;;;;;;;2.83;2.63;;;26.70;99.90;;;27.18;56.28;101510.31;5067335;28;20095;-73
2022/07/20 07:39:34;;;;;;;2.10;2.00;;;26.60;99.90;;;27.30;56.54;101514.97;5051886;28;20124;-72
2022/07/20 07:42:03;;;;;;;1.98;1.92;;;26.80;99.90;;;27.41;56.16;101504.31;5051590;28;20040;-72
2022/07/20 07:44:37;;;;;;;2.10;2.00;;;26.80;99.90;;;27.30;55.36;101511.38;5051861;28;20127;-72
2022/07/20 07:47:07;;;;;;;1.85;1.80;;;26.80;99.90;;;27.44;56.06;101525.00;5051431;28;20052;-72
2022/07/20 07:49:36;;;;;;;2.28;2.13;;;26.90;99.90;;;27.48;55.59;101529.28;5051705;28;20495;-72
2022/07/20 07:52:05;;;;;;;2.20;2.10;;;27.00;99.90;;;27.44;54.50;101531.31;5052187;28;20127;-76
2022/07/20 07:54:34;;;;;;;1.92;1.83;;;27.00;99.90;;;27.45;54.05;101546.66;5051790;28;20128;-73
2022/07/20 07:57:02;;;;;;;2.53;2.40;;;26.90;99.90;;;27.53;53.74;101521.69;5051752;28;20060;-73
2022/07/20 07:59:31;;;;;;;2.28;2.17;;;27.00;99.90;;;27.23;53.31;101439.38;5051427;28;20045;-74
2022/07/20 08:02:01;;;;;;;;;;;27.20;99.90;;;27.77;52.21;101547.31;5052016;28;20064;-68
2022/07/20 08:04:30;;;;;;;4.78;4.40;;;27.20;99.90;;;27.84;52.07;101542.31;5051919;28;19921;-65
2022/07/20 08:07:00;;;;;;;2.47;2.28;;;27.30;99.90;;;27.90;51.80;101536.47;5051683;28;20041;-66
2022/07/20 08:09:29;;;;;;;1.95;1.85;;;27.30;99.90;;;27.88;50.73;101527.56;5054030;28;20483;-66
2022/07/20 08:11:58;;;;;;;1.42;1.42;;;27.40;99.90;;;27.94;50.67;101533.50;5055442;28;20045;-66
2022/07/20 08:14:26;;;;;;;2.10;1.90;;;27.40;99.90;;;27.82;50.86;101509.78;5055152;28;20052;-66
2022/07/20 08:16:54;;;;;;;2.35;2.25;;;27.40;99.90;;;27.79;51.21;101517.28;5055093;28;20505;-66
2022/07/20 08:19:23;;;;;;;1.67;1.67;;;27.30;99.90;;;27.20;51.73;101445.88;5053981;28;20053;-66
2022/07/20 08:21:51;;;;;;;2.40;2.30;;;27.10;99.90;;;27.72;52.02;101522.25;5055358;28;20496;-67
2022/07/20 08:24:21;;;;;;;1.67;1.65;;;27.10;99.90;;;27.67;51.99;101519.84;5055088;28;20075;-67
2022/07/20 08:26:49;;;;;;;2.00;1.90;;;27.10;99.90;;;27.68;52.42;101515.25;5054917;28;20206;-67
2022/07/20 08:29:17;;;;;;;2.00;1.90;;;27.10;99.90;;;27.62;52.24;101526.56;5053440;28;20073;-67
2022/07/20 08:31:46;;;;;;;1.45;1.45;;;27.10;99.90;;;27.64;52.29;101520.03;5055092;28;20437;-67
2022/07/20 08:34:15;;;;;;;1.60;1.60;;;27.10;99.90;;;27.48;53.04;101497.53;5054712;28;20037;-67
2022/07/20 08:36:49;;;;;;;1.73;1.63;;;27.00;99.90;;;27.53;53.17;101503.53;5054899;28;20048;-67
2022/07/20 08:39:19;;;;;;;1.90;1.80;;;27.00;99.90;;;27.46;53.37;101507.63;5054751;28;20041;-67
2022/07/20 08:41:48;;;;;;;2.35;2.25;;;26.90;99.90;;;27.30;53.00;101506.84;5054519;28;20106;-67
2022/07/20 08:44:17;;;;;;;1.33;1.33;;;26.80;99.90;;;27.32;53.06;101506.72;5054446;28;20242;-67
2022/07/20 08:46:46;;;;;;;1.52;1.52;;;26.80;99.90;;;27.40;53.60;101515.31;5054737;28;20120;-67
2022/07/20 08:49:15;;;;;;;1.50;1.50;;;26.90;99.90;;;26.54;53.93;101382.22;5054578;28;20036;-67
2022/07/20 08:51:44;;;;;;;1.60;1.60;;;26.80;99.90;;;27.29;54.29;101537.69;5054573;28;20041;-68
2022/07/20 08:54:12;;;;;;;1.85;1.83;;;26.90;99.90;;;27.35;54.23;101548.19;5054787;28;20065;-67
2022/07/20 08:56:42;;;;;;;1.92;1.83;;;26.80;99.90;;;27.06;54.71;101466.75;5054578;28;20159;-67
2022/07/20 08:59:10;;;;;;;2.17;1.92;;;26.80;99.90;;;27.33;54.82;101493.06;5052931;28;20048;-67
2022/07/20 09:02:00;;;;;;;1.90;1.80;;;26.80;99.90;;;27.12;55.67;101393.88;5054682;28;20041;-68
2022/07/20 09:04:29;;;;;;;1.70;1.70;;;26.70;99.90;;;26.45;57.38;101355.66;5054126;28;20455;-67
2022/07/20 09:06:58;;;;;;;2.00;1.90;;;26.10;99.90;;;26.13;57.15;101316.09;5054277;28;20045;-67
2022/07/20 09:09:26;;;;;;;3.60;3.25;;;25.80;99.90;;;26.12;58.10;101336.03;5053983;28;20099;-67
2022/07/20 09:11:56;;;;;;;4.18;2.88;;;25.60;99.90;;;25.79;59.61;101361.50;5054044;28;20033;-67
2022/07/20 09:14:42;;;;;;;1.88;1.77;;;25.30;99.90;;;26.05;59.42;101530.78;5054118;28;20106;-67
2022/07/20 09:17:19;;;;;;;7.07;2.90;;;25.50;99.90;;;26.22;59.85;101516.28;5053896;28;20487;-67
2022/07/20 09:19:59;;;;;;;1.50;1.50;;;25.60;99.90;;;26.49;59.29;101537.22;5054093;28;20396;-67
2022/07/20 09:22:34;;;;;;;1.63;1.63;;;25.90;99.90;;;26.61;59.22;101533.78;5053774;28;20045;-66
2022/07/20 09:25:11;;;;;;;2.08;1.98;;;26.20;99.90;;;26.94;58.46;101546.28;5052620;28;20352;-67
2022/07/20 09:27:42;;;;;;;1.67;1.67;;;26.40;99.90;;;27.06;58.26;101545.53;5053474;28;20053;-67
2022/07/20 09:30:14;;;;;;;1.70;1.70;;;26.50;99.90;;;27.20;58.47;101534.66;5053653;28;20045;-67
2022/07/20 09:32:56;;;;;;;1.30;1.30;;;26.70;99.90;;;27.44;57.10;101557.63;5053820;28;20049;-67
2022/07/20 09:35:31;;;;;;;2.30;2.20;;;26.90;99.90;;;27.40;57.11;101561.50;5053906;28;20040;-67
2022/07/20 09:38:03;;;;;;;1.40;1.40;;;26.90;99.90;;;27.37;56.21;101554.41;5054140;28;20045;-67
2022/07/20 09:40:42;;;;;;;1.45;1.45;;;26.90;99.90;;;25.47;56.19;101235.19;5053799;28;20049;-67
2022/07/20 09:43:27;;;;;;;1.48;1.48;;;26.90;99.90;;;27.23;55.85;101572.53;5053839;28;20083;-67
2022/07/20 09:45:56;;;;;;;16.42;2.08;;;26.80;99.90;;;27.06;55.42;101592.56;5052685;28;20045;-67
2022/07/20 09:48:25;;;;;;;1.75;1.75;;;26.50;99.90;;;26.88;55.67;101604.59;5053536;28;20045;-67
2022/07/20 09:50:54;;;;;;;1.88;1.77;;;26.40;99.90;;;26.82;56.20;101618.53;5069312;28;20110;-67
2022/07/20 09:53:23;;;;;;;1.50;1.50;;;26.20;99.90;;;26.88;56.51;101614.56;5053665;28;20048;-67
2022/07/20 09:55:52;;;;;;;2.30;2.20;;;26.30;99.90;;;26.64;56.21;101633.16;5053531;28;20098;-67
2022/07/20 09:58:25;;;;;;;1.42;1.42;;;26.10;99.90;;;26.58;56.84;101618.09;5053575;28;20045;-67
2022/07/20 10:00:54;;;;;;;2.00;1.90;;;26.00;99.90;;;26.58;56.77;101592.78;5053618;28;20103;-67
2022/07/20 10:03:22;;;;;;;1.55;1.55;;;26.00;99.90;;;26.54;56.84;101583.97;5053533;28;20040;-67
2022/07/20 10:05:51;;;;;;;1.85;1.80;;;25.90;99.90;;;26.59;57.56;101624.41;5053196;28;20041;-67
2022/07/20 10:08:20;;;;;;;3.20;3.00;;;26.00;99.90;;;26.61;58.97;101639.66;5052202;28;20475;-67
2022/07/20 10:10:48;;;;;;;2.60;2.13;;;26.10;99.90;;;26.68;60.31;101657.31;5053327;28;20091;-67
2022/07/20 10:13:17;;;;;;;1.40;1.40;;;26.10;99.90;;;26.74;60.88;101646.13;5053373;28;20170;-67
2022/07/20 10:15:59;;;;;;;4.60;2.70;;;26.20;99.90;;;26.64;60.35;101619.56;5053132;28;20056;-67
2022/07/20 10:18:28;;;;;;;1.60;1.60;;;26.20;99.90;;;26.74;60.68;101602.69;5053274;28;20076;-67
2022/07/20 10:20:56;;;;;;;7.57;3.45;;;26.30;99.90;;;26.91;59.85;101639.69;5052847;28;20029;-66
2022/07/20 10:23:27;;;;;;;2.25;2.15;;;26.40;99.90;;;26.93;59.68;101639.59;5052882;28;20094;-67
2022/07/20 10:25:56;;;;;;;2.08;1.95;;;26.40;99.90;;;26.96;59.17;101628.56;5052957;28;20076;-67